sensor_id;sensor_type;location;lat;lon;timestamp;P1;durP1;ratioP1;P2;durP2;ratioP2
6105;SDS011;3083;51.508;7.966;2023-05-07T00:00:48;7.10;;;4.43;;
6105;SDS011;3083;51.508;7.966;2023-05-07T00:03:16;8.27;;;5.30;;
6105;SDS011;3083;51.508;7.966;2023-05-07T00:05:44;7.40;;;4.80;;
6105;SDS011;3083;51.508;7.966;2023-05-07T00:08:12;9.33;;;5.03;;
6105;SDS011;3083;51.508;7.966;2023-05-07T00:10:40;7.40;;;4.10;;
6105;SDS011;3083;51.508;7.966;2023-05-07T00:13:07;7.57;;;4.40;;
6105;SDS011;3083;51.508;7.966;2023-05-07T00:15:34;9.83;;;4.83;;
6105;SDS011;3083;51.508;7.966;2023-05-07T00:18:01;8.50;;;4.50;;
6105;SDS011;3083;51.508;7.966;2023-05-07T00:20:28;6.53;;;4.47;;
6105;SDS011;3083;51.508;7.966;2023-05-07T00:22:55;9.80;;;4.60;;
6105;SDS011;3083;51.508;7.966;2023-05-07T00:25:24;7.97;;;4.23;;
6105;SDS011;3083;51.508;7.966;2023-05-07T00:27:50;6.10;;;3.90;;
6105;SDS011;3083;51.508;7.966;2023-05-07T00:30:17;5.90;;;3.50;;
6105;SDS011;3083;51.508;7.966;2023-05-07T00:32:45;6.63;;;3.70;;
6105;SDS011;3083;51.508;7.966;2023-05-07T00:35:13;6.33;;;3.40;;
6105;SDS011;3083;51.508;7.966;2023-05-07T00:37:41;5.93;;;3.67;;
6105;SDS011;3083;51.508;7.966;2023-05-07T00:40:08;6.07;;;3.83;;
6105;SDS011;3083;51.508;7.966;2023-05-07T00:42:37;6.33;;;3.60;;
6105;SDS011;3083;51.508;7.966;2023-05-07T00:45:04;7.10;;;3.70;;
6105;SDS011;3083;51.508;7.966;2023-05-07T00:47:32;5.33;;;3.50;;
6105;SDS011;3083;51.508;7.966;2023-05-07T00:49:59;7.07;;;3.40;;
6105;SDS011;3083;51.508;7.966;2023-05-07T00:52:26;7.60;;;3.97;;
6105;SDS011;3083;51.508;7.966;2023-05-07T00:54:54;5.23;;;3.67;;
6105;SDS011;3083;51.508;7.966;2023-05-07T00:57:22;6.17;;;3.53;;
6105;SDS011;3083;51.508;7.966;2023-05-07T00:59:51;7.67;;;3.87;;
6105;SDS011;3083;51.508;7.966;2023-05-07T01:02:19;5.63;;;3.33;;
6105;SDS011;3083;51.508;7.966;2023-05-07T01:04:46;6.47;;;4.00;;
6105;SDS011;3083;51.508;7.966;2023-05-07T01:07:12;6.40;;;4.00;;
6105;SDS011;3083;51.508;7.966;2023-05-07T01:09:40;7.80;;;4.07;;
6105;SDS011;3083;51.508;7.966;2023-05-07T01:12:07;8.03;;;4.63;;
6105;SDS011;3083;51.508;7.966;2023-05-07T01:14:35;6.83;;;4.20;;
6105;SDS011;3083;51.508;7.966;2023-05-07T01:17:03;6.70;;;4.03;;
6105;SDS011;3083;51.508;7.966;2023-05-07T01:19:31;5.47;;;3.90;;
6105;SDS011;3083;51.508;7.966;2023-05-07T01:22:01;6.80;;;3.93;;
6105;SDS011;3083;51.508;7.966;2023-05-07T01:24:32;7.03;;;4.20;;
6105;SDS011;3083;51.508;7.966;2023-05-07T01:26:59;6.10;;;4.00;;
6105;SDS011;3083;51.508;7.966;2023-05-07T01:29:27;6.60;;;4.33;;
6105;SDS011;3083;51.508;7.966;2023-05-07T01:31:54;6.97;;;3.73;;
6105;SDS011;3083;51.508;7.966;2023-05-07T01:34:23;5.80;;;4.00;;
6105;SDS011;3083;51.508;7.966;2023-05-07T01:36:52;6.93;;;3.70;;
6105;SDS011;3083;51.508;7.966;2023-05-07T01:39:20;6.67;;;4.20;;
6105;SDS011;3083;51.508;7.966;2023-05-07T01:41:49;8.07;;;4.60;;
6105;SDS011;3083;51.508;7.966;2023-05-07T01:44:16;7.70;;;4.70;;
6105;SDS011;3083;51.508;7.966;2023-05-07T01:46:45;7.07;;;4.63;;
6105;SDS011;3083;51.508;7.966;2023-05-07T01:49:13;7.00;;;4.27;;
6105;SDS011;3083;51.508;7.966;2023-05-07T01:51:41;10.10;;;4.70;;
6105;SDS011;3083;51.508;7.966;2023-05-07T01:54:08;7.30;;;4.77;;
6105;SDS011;3083;51.508;7.966;2023-05-07T01:56:36;7.17;;;4.47;;
6105;SDS011;3083;51.508;7.966;2023-05-07T01:59:04;7.50;;;4.40;;
6105;SDS011;3083;51.508;7.966;2023-05-07T02:01:31;8.10;;;4.37;;
6105;SDS011;3083;51.508;7.966;2023-05-07T02:03:58;8.10;;;4.33;;
6105;SDS011;3083;51.508;7.966;2023-05-07T02:06:25;7.07;;;4.27;;
6105;SDS011;3083;51.508;7.966;2023-05-07T02:08:51;7.20;;;4.97;;
6105;SDS011;3083;51.508;7.966;2023-05-07T02:11:18;8.90;;;5.10;;
6105;SDS011;3083;51.508;7.966;2023-05-07T02:13:45;7.73;;;4.60;;
6105;SDS011;3083;51.508;7.966;2023-05-07T02:16:14;8.40;;;5.40;;
6105;SDS011;3083;51.508;7.966;2023-05-07T02:18:41;8.90;;;5.10;;
6105;SDS011;3083;51.508;7.966;2023-05-07T02:21:07;8.13;;;5.23;;
6105;SDS011;3083;51.508;7.966;2023-05-07T02:23:34;9.13;;;5.37;;
6105;SDS011;3083;51.508;7.966;2023-05-07T02:26:01;7.63;;;4.97;;
6105;SDS011;3083;51.508;7.966;2023-05-07T02:28:30;7.33;;;4.50;;
6105;SDS011;3083;51.508;7.966;2023-05-07T02:30:58;9.07;;;4.97;;
6105;SDS011;3083;51.508;7.966;2023-05-07T02:33:27;7.00;;;4.73;;
6105;SDS011;3083;51.508;7.966;2023-05-07T02:35:54;8.17;;;4.83;;
6105;SDS011;3083;51.508;7.966;2023-05-07T02:38:21;8.83;;;5.20;;
6105;SDS011;3083;51.508;7.966;2023-05-07T02:40:48;8.30;;;5.20;;
6105;SDS011;3083;51.508;7.966;2023-05-07T02:43:15;8.40;;;4.80;;
6105;SDS011;3083;51.508;7.966;2023-05-07T02:45:42;9.43;;;5.13;;
6105;SDS011;3083;51.508;7.966;2023-05-07T02:48:09;8.73;;;4.97;;
6105;SDS011;3083;51.508;7.966;2023-05-07T02:50:37;8.00;;;4.90;;
6105;SDS011;3083;51.508;7.966;2023-05-07T02:53:04;8.27;;;5.10;;
6105;SDS011;3083;51.508;7.966;2023-05-07T02:55:31;9.40;;;4.60;;
6105;SDS011;3083;51.508;7.966;2023-05-07T02:57:58;8.93;;;4.70;;
6105;SDS011;3083;51.508;7.966;2023-05-07T03:00:25;12.07;;;7.50;;
6105;SDS011;3083;51.508;7.966;2023-05-07T03:02:53;11.53;;;6.40;;
6105;SDS011;3083;51.508;7.966;2023-05-07T03:05:19;8.60;;;5.40;;
6105;SDS011;3083;51.508;7.966;2023-05-07T03:07:48;9.10;;;5.23;;
6105;SDS011;3083;51.508;7.966;2023-05-07T03:10:15;8.10;;;5.57;;
6105;SDS011;3083;51.508;7.966;2023-05-07T03:12:42;12.03;;;6.23;;
6105;SDS011;3083;51.508;7.966;2023-05-07T03:15:09;8.53;;;5.70;;
6105;SDS011;3083;51.508;7.966;2023-05-07T03:17:37;10.97;;;6.17;;
6105;SDS011;3083;51.508;7.966;2023-05-07T03:20:05;8.67;;;4.90;;
6105;SDS011;3083;51.508;7.966;2023-05-07T03:22:33;8.60;;;5.83;;
6105;SDS011;3083;51.508;7.966;2023-05-07T03:25:01;10.87;;;6.23;;
6105;SDS011;3083;51.508;7.966;2023-05-07T03:27:29;12.30;;;7.80;;
6105;SDS011;3083;51.508;7.966;2023-05-07T03:29:56;14.50;;;7.93;;
6105;SDS011;3083;51.508;7.966;2023-05-07T03:32:23;12.90;;;7.50;;
6105;SDS011;3083;51.508;7.966;2023-05-07T03:34:50;16.73;;;7.90;;
6105;SDS011;3083;51.508;7.966;2023-05-07T03:37:17;11.80;;;7.80;;
6105;SDS011;3083;51.508;7.966;2023-05-07T03:39:44;13.80;;;8.57;;
6105;SDS011;3083;51.508;7.966;2023-05-07T03:42:12;15.37;;;9.20;;
6105;SDS011;3083;51.508;7.966;2023-05-07T03:44:39;15.60;;;9.57;;
6105;SDS011;3083;51.508;7.966;2023-05-07T03:47:06;13.33;;;8.00;;
6105;SDS011;3083;51.508;7.966;2023-05-07T03:49:35;13.27;;;7.67;;
6105;SDS011;3083;51.508;7.966;2023-05-07T03:52:02;13.00;;;7.97;;
6105;SDS011;3083;51.508;7.966;2023-05-07T03:54:29;13.37;;;7.63;;
6105;SDS011;3083;51.508;7.966;2023-05-07T03:56:56;11.30;;;7.10;;
6105;SDS011;3083;51.508;7.966;2023-05-07T03:59:25;12.53;;;6.80;;
6105;SDS011;3083;51.508;7.966;2023-05-07T04:01:51;12.07;;;6.23;;
6105;SDS011;3083;51.508;7.966;2023-05-07T04:04:19;13.17;;;6.63;;
6105;SDS011;3083;51.508;7.966;2023-05-07T04:06:46;14.23;;;7.30;;
6105;SDS011;3083;51.508;7.966;2023-05-07T04:09:13;10.40;;;6.17;;
6105;SDS011;3083;51.508;7.966;2023-05-07T04:11:40;11.17;;;6.53;;
6105;SDS011;3083;51.508;7.966;2023-05-07T04:14:07;11.67;;;6.50;;
6105;SDS011;3083;51.508;7.966;2023-05-07T04:16:35;9.93;;;6.33;;
6105;SDS011;3083;51.508;7.966;2023-05-07T04:19:02;12.80;;;7.83;;
6105;SDS011;3083;51.508;7.966;2023-05-07T04:21:29;13.60;;;7.43;;
6105;SDS011;3083;51.508;7.966;2023-05-07T04:23:56;18.13;;;7.90;;
6105;SDS011;3083;51.508;7.966;2023-05-07T04:26:23;12.20;;;7.10;;
6105;SDS011;3083;51.508;7.966;2023-05-07T04:28:50;15.57;;;7.87;;
6105;SDS011;3083;51.508;7.966;2023-05-07T04:31:17;12.37;;;7.23;;
6105;SDS011;3083;51.508;7.966;2023-05-07T04:33:45;12.70;;;7.17;;
6105;SDS011;3083;51.508;7.966;2023-05-07T04:36:12;12.63;;;7.37;;
6105;SDS011;3083;51.508;7.966;2023-05-07T04:38:39;10.30;;;6.67;;
6105;SDS011;3083;51.508;7.966;2023-05-07T04:41:06;13.23;;;7.23;;
6105;SDS011;3083;51.508;7.966;2023-05-07T04:43:35;13.03;;;7.40;;
6105;SDS011;3083;51.508;7.966;2023-05-07T04:46:01;10.57;;;7.20;;
6105;SDS011;3083;51.508;7.966;2023-05-07T04:48:28;11.73;;;7.23;;
6105;SDS011;3083;51.508;7.966;2023-05-07T04:50:57;11.73;;;7.70;;
6105;SDS011;3083;51.508;7.966;2023-05-07T04:53:24;14.00;;;7.97;;
6105;SDS011;3083;51.508;7.966;2023-05-07T04:55:54;11.97;;;7.80;;
6105;SDS011;3083;51.508;7.966;2023-05-07T04:58:22;11.90;;;7.63;;
6105;SDS011;3083;51.508;7.966;2023-05-07T05:00:49;12.73;;;6.80;;
6105;SDS011;3083;51.508;7.966;2023-05-07T05:03:15;13.83;;;7.67;;
6105;SDS011;3083;51.508;7.966;2023-05-07T05:05:43;12.93;;;7.80;;
6105;SDS011;3083;51.508;7.966;2023-05-07T05:08:11;12.63;;;7.33;;
6105;SDS011;3083;51.508;7.966;2023-05-07T05:10:38;13.03;;;7.57;;
6105;SDS011;3083;51.508;7.966;2023-05-07T05:13:06;11.17;;;7.70;;
6105;SDS011;3083;51.508;7.966;2023-05-07T05:15:34;12.93;;;7.60;;
6105;SDS011;3083;51.508;7.966;2023-05-07T05:18:01;14.27;;;8.40;;
6105;SDS011;3083;51.508;7.966;2023-05-07T05:20:28;11.63;;;7.40;;
6105;SDS011;3083;51.508;7.966;2023-05-07T05:22:55;12.30;;;7.00;;
6105;SDS011;3083;51.508;7.966;2023-05-07T05:25:23;12.30;;;6.90;;
6105;SDS011;3083;51.508;7.966;2023-05-07T05:27:50;12.20;;;7.10;;
6105;SDS011;3083;51.508;7.966;2023-05-07T05:30:17;12.20;;;7.00;;
6105;SDS011;3083;51.508;7.966;2023-05-07T05:32:44;13.03;;;7.97;;
6105;SDS011;3083;51.508;7.966;2023-05-07T05:35:10;12.47;;;7.03;;
6105;SDS011;3083;51.508;7.966;2023-05-07T05:37:37;11.40;;;7.10;;
6105;SDS011;3083;51.508;7.966;2023-05-07T05:40:05;10.40;;;6.07;;
6105;SDS011;3083;51.508;7.966;2023-05-07T05:42:34;9.73;;;6.10;;
6105;SDS011;3083;51.508;7.966;2023-05-07T05:45:01;9.67;;;5.67;;
6105;SDS011;3083;51.508;7.966;2023-05-07T05:47:28;8.23;;;5.70;;
6105;SDS011;3083;51.508;7.966;2023-05-07T05:49:56;10.60;;;7.20;;
6105;SDS011;3083;51.508;7.966;2023-05-07T05:52:22;11.73;;;6.50;;
6105;SDS011;3083;51.508;7.966;2023-05-07T05:54:50;9.80;;;5.10;;
6105;SDS011;3083;51.508;7.966;2023-05-07T05:57:17;8.30;;;4.70;;
6105;SDS011;3083;51.508;7.966;2023-05-07T05:59:45;6.67;;;4.10;;
6105;SDS011;3083;51.508;7.966;2023-05-07T06:02:13;6.30;;;4.33;;
6105;SDS011;3083;51.508;7.966;2023-05-07T06:04:40;7.57;;;4.50;;
6105;SDS011;3083;51.508;7.966;2023-05-07T06:07:07;6.50;;;4.20;;
6105;SDS011;3083;51.508;7.966;2023-05-07T06:09:34;6.00;;;3.90;;
6105;SDS011;3083;51.508;7.966;2023-05-07T06:12:02;7.83;;;3.63;;
6105;SDS011;3083;51.508;7.966;2023-05-07T06:14:29;7.13;;;5.03;;
6105;SDS011;3083;51.508;7.966;2023-05-07T06:19:26;5.30;;;3.80;;
6105;SDS011;3083;51.508;7.966;2023-05-07T06:21:53;7.73;;;4.67;;
6105;SDS011;3083;51.508;7.966;2023-05-07T06:24:21;5.97;;;3.63;;
6105;SDS011;3083;51.508;7.966;2023-05-07T06:26:48;5.37;;;3.77;;
6105;SDS011;3083;51.508;7.966;2023-05-07T06:29:15;7.30;;;4.53;;
6105;SDS011;3083;51.508;7.966;2023-05-07T06:31:42;7.10;;;4.60;;
6105;SDS011;3083;51.508;7.966;2023-05-07T06:34:10;8.90;;;4.73;;
6105;SDS011;3083;51.508;7.966;2023-05-07T06:36:39;11.57;;;3.97;;
6105;SDS011;3083;51.508;7.966;2023-05-07T06:39:06;8.03;;;4.87;;
6105;SDS011;3083;51.508;7.966;2023-05-07T06:41:33;10.90;;;5.50;;
6105;SDS011;3083;51.508;7.966;2023-05-07T06:44:00;9.60;;;5.50;;
6105;SDS011;3083;51.508;7.966;2023-05-07T06:46:27;10.40;;;5.80;;
6105;SDS011;3083;51.508;7.966;2023-05-07T06:48:54;6.50;;;5.10;;
6105;SDS011;3083;51.508;7.966;2023-05-07T06:51:23;7.97;;;5.07;;
6105;SDS011;3083;51.508;7.966;2023-05-07T06:53:50;8.43;;;5.03;;
6105;SDS011;3083;51.508;7.966;2023-05-07T06:56:17;8.93;;;5.10;;
6105;SDS011;3083;51.508;7.966;2023-05-07T06:58:45;8.00;;;5.30;;
6105;SDS011;3083;51.508;7.966;2023-05-07T07:01:12;13.60;;;5.40;;
6105;SDS011;3083;51.508;7.966;2023-05-07T07:03:39;9.37;;;5.90;;
6105;SDS011;3083;51.508;7.966;2023-05-07T07:06:06;7.83;;;5.23;;
6105;SDS011;3083;51.508;7.966;2023-05-07T07:08:34;9.90;;;6.70;;
6105;SDS011;3083;51.508;7.966;2023-05-07T07:11:03;9.37;;;6.73;;
6105;SDS011;3083;51.508;7.966;2023-05-07T07:13:30;11.47;;;7.63;;
6105;SDS011;3083;51.508;7.966;2023-05-07T07:15:57;11.60;;;8.20;;
6105;SDS011;3083;51.508;7.966;2023-05-07T07:18:24;14.03;;;8.27;;
6105;SDS011;3083;51.508;7.966;2023-05-07T07:20:51;12.33;;;9.00;;
6105;SDS011;3083;51.508;7.966;2023-05-07T07:23:18;13.40;;;8.40;;
6105;SDS011;3083;51.508;7.966;2023-05-07T07:25:46;14.00;;;9.80;;
6105;SDS011;3083;51.508;7.966;2023-05-07T07:28:13;17.97;;;11.50;;
6105;SDS011;3083;51.508;7.966;2023-05-07T07:30:40;14.87;;;10.43;;
6105;SDS011;3083;51.508;7.966;2023-05-07T07:33:07;13.50;;;10.00;;
6105;SDS011;3083;51.508;7.966;2023-05-07T07:35:34;16.00;;;10.77;;
6105;SDS011;3083;51.508;7.966;2023-05-07T07:38:01;14.33;;;10.23;;
6105;SDS011;3083;51.508;7.966;2023-05-07T07:40:28;14.40;;;10.13;;
6105;SDS011;3083;51.508;7.966;2023-05-07T07:42:56;17.43;;;10.67;;
6105;SDS011;3083;51.508;7.966;2023-05-07T07:45:23;17.13;;;12.10;;
6105;SDS011;3083;51.508;7.966;2023-05-07T07:47:50;14.33;;;10.13;;
6105;SDS011;3083;51.508;7.966;2023-05-07T07:50:17;16.27;;;11.43;;
6105;SDS011;3083;51.508;7.966;2023-05-07T07:52:45;19.00;;;13.20;;
6105;SDS011;3083;51.508;7.966;2023-05-07T07:55:12;19.50;;;12.07;;
6105;SDS011;3083;51.508;7.966;2023-05-07T07:57:40;19.13;;;12.90;;
6105;SDS011;3083;51.508;7.966;2023-05-07T08:00:08;19.27;;;13.23;;
6105;SDS011;3083;51.508;7.966;2023-05-07T08:02:36;16.23;;;11.90;;
6105;SDS011;3083;51.508;7.966;2023-05-07T08:05:03;17.63;;;11.83;;
6105;SDS011;3083;51.508;7.966;2023-05-07T08:07:30;15.37;;;11.10;;
6105;SDS011;3083;51.508;7.966;2023-05-07T08:09:57;15.73;;;10.63;;
6105;SDS011;3083;51.508;7.966;2023-05-07T08:12:24;23.80;;;10.67;;
6105;SDS011;3083;51.508;7.966;2023-05-07T08:14:51;17.20;;;10.80;;
6105;SDS011;3083;51.508;7.966;2023-05-07T08:17:19;15.20;;;10.77;;
6105;SDS011;3083;51.508;7.966;2023-05-07T08:19:47;15.30;;;10.27;;
6105;SDS011;3083;51.508;7.966;2023-05-07T08:22:14;14.70;;;11.47;;
6105;SDS011;3083;51.508;7.966;2023-05-07T08:24:42;14.87;;;10.17;;
6105;SDS011;3083;51.508;7.966;2023-05-07T08:27:09;14.87;;;10.70;;
6105;SDS011;3083;51.508;7.966;2023-05-07T08:29:36;12.70;;;9.63;;
6105;SDS011;3083;51.508;7.966;2023-05-07T08:32:03;17.10;;;10.73;;
6105;SDS011;3083;51.508;7.966;2023-05-07T08:34:32;16.87;;;11.07;;
6105;SDS011;3083;51.508;7.966;2023-05-07T08:36:58;17.37;;;11.80;;
6105;SDS011;3083;51.508;7.966;2023-05-07T08:39:25;17.60;;;12.10;;
6105;SDS011;3083;51.508;7.966;2023-05-07T08:41:52;19.20;;;13.20;;
6105;SDS011;3083;51.508;7.966;2023-05-07T08:44:22;19.20;;;12.57;;
6105;SDS011;3083;51.508;7.966;2023-05-07T08:46:52;18.17;;;12.80;;
6105;SDS011;3083;51.508;7.966;2023-05-07T08:49:21;15.93;;;11.63;;
6105;SDS011;3083;51.508;7.966;2023-05-07T08:51:51;19.27;;;13.60;;
6105;SDS011;3083;51.508;7.966;2023-05-07T08:54:18;20.47;;;14.53;;
6105;SDS011;3083;51.508;7.966;2023-05-07T08:56:47;18.60;;;13.30;;
6105;SDS011;3083;51.508;7.966;2023-05-07T08:59:15;17.73;;;12.77;;
6105;SDS011;3083;51.508;7.966;2023-05-07T09:01:41;19.80;;;14.43;;
6105;SDS011;3083;51.508;7.966;2023-05-07T09:04:08;19.60;;;13.60;;
6105;SDS011;3083;51.508;7.966;2023-05-07T09:06:35;20.30;;;14.30;;
6105;SDS011;3083;51.508;7.966;2023-05-07T09:09:04;19.73;;;14.00;;
6105;SDS011;3083;51.508;7.966;2023-05-07T09:11:31;21.20;;;15.37;;
6105;SDS011;3083;51.508;7.966;2023-05-07T09:13:58;21.87;;;13.53;;
6105;SDS011;3083;51.508;7.966;2023-05-07T09:16:26;19.53;;;14.67;;
6105;SDS011;3083;51.508;7.966;2023-05-07T09:18:57;20.50;;;14.77;;
6105;SDS011;3083;51.508;7.966;2023-05-07T09:21:25;19.97;;;13.87;;
6105;SDS011;3083;51.508;7.966;2023-05-07T09:23:53;18.93;;;12.90;;
6105;SDS011;3083;51.508;7.966;2023-05-07T09:26:22;23.20;;;15.17;;
6105;SDS011;3083;51.508;7.966;2023-05-07T09:28:50;18.87;;;13.70;;
6105;SDS011;3083;51.508;7.966;2023-05-07T09:31:17;24.37;;;12.40;;
6105;SDS011;3083;51.508;7.966;2023-05-07T09:33:44;19.23;;;13.77;;
6105;SDS011;3083;51.508;7.966;2023-05-07T09:36:12;19.43;;;13.13;;
6105;SDS011;3083;51.508;7.966;2023-05-07T09:38:39;16.57;;;12.60;;
6105;SDS011;3083;51.508;7.966;2023-05-07T09:41:07;19.40;;;14.10;;
6105;SDS011;3083;51.508;7.966;2023-05-07T09:43:37;21.53;;;14.87;;
6105;SDS011;3083;51.508;7.966;2023-05-07T09:46:08;19.57;;;14.10;;
6105;SDS011;3083;51.508;7.966;2023-05-07T09:48:38;21.17;;;13.80;;
6105;SDS011;3083;51.508;7.966;2023-05-07T09:51:14;17.60;;;12.63;;
6105;SDS011;3083;51.508;7.966;2023-05-07T09:53:44;17.07;;;13.10;;
6105;SDS011;3083;51.508;7.966;2023-05-07T09:56:13;20.10;;;14.67;;
6105;SDS011;3083;51.508;7.966;2023-05-07T09:58:42;19.43;;;13.50;;
6105;SDS011;3083;51.508;7.966;2023-05-07T10:01:11;15.97;;;11.40;;
6105;SDS011;3083;51.508;7.966;2023-05-07T10:03:39;18.57;;;13.80;;
6105;SDS011;3083;51.508;7.966;2023-05-07T10:06:08;19.50;;;14.50;;
6105;SDS011;3083;51.508;7.966;2023-05-07T10:08:35;18.97;;;13.50;;
6105;SDS011;3083;51.508;7.966;2023-05-07T10:11:03;18.10;;;12.77;;
6105;SDS011;3083;51.508;7.966;2023-05-07T10:13:31;19.30;;;13.43;;
6105;SDS011;3083;51.508;7.966;2023-05-07T10:16:02;21.87;;;14.30;;
6105;SDS011;3083;51.508;7.966;2023-05-07T10:18:30;19.27;;;13.47;;
6105;SDS011;3083;51.508;7.966;2023-05-07T10:20:59;20.63;;;14.80;;
6105;SDS011;3083;51.508;7.966;2023-05-07T10:23:30;19.03;;;13.57;;
6105;SDS011;3083;51.508;7.966;2023-05-07T10:25:59;18.23;;;13.00;;
6105;SDS011;3083;51.508;7.966;2023-05-07T10:28:28;18.63;;;13.70;;
6105;SDS011;3083;51.508;7.966;2023-05-07T10:30:59;15.30;;;10.57;;
6105;SDS011;3083;51.508;7.966;2023-05-07T10:33:36;16.97;;;12.60;;
6105;SDS011;3083;51.508;7.966;2023-05-07T10:36:05;17.90;;;12.80;;
6105;SDS011;3083;51.508;7.966;2023-05-07T10:38:33;19.27;;;11.63;;
6105;SDS011;3083;51.508;7.966;2023-05-07T10:41:00;16.00;;;12.37;;
6105;SDS011;3083;51.508;7.966;2023-05-07T10:43:38;15.10;;;11.37;;
6105;SDS011;3083;51.508;7.966;2023-05-07T10:49:08;13.80;;;10.40;;
6105;SDS011;3083;51.508;7.966;2023-05-07T10:51:37;15.70;;;10.33;;
6105;SDS011;3083;51.508;7.966;2023-05-07T10:54:20;12.83;;;9.50;;
6105;SDS011;3083;51.508;7.966;2023-05-07T10:56:48;14.30;;;9.43;;
6105;SDS011;3083;51.508;7.966;2023-05-07T10:59:37;16.20;;;12.23;;
6105;SDS011;3083;51.508;7.966;2023-05-07T11:02:09;11.03;;;8.27;;
6105;SDS011;3083;51.508;7.966;2023-05-07T11:04:36;16.00;;;9.97;;
6105;SDS011;3083;51.508;7.966;2023-05-07T11:10:02;14.53;;;10.10;;
6105;SDS011;3083;51.508;7.966;2023-05-07T11:18:04;11.93;;;8.23;;
6105;SDS011;3083;51.508;7.966;2023-05-07T11:20:44;10.43;;;7.10;;
6105;SDS011;3083;51.508;7.966;2023-05-07T11:26:32;9.20;;;7.17;;
6105;SDS011;3083;51.508;7.966;2023-05-07T11:29:12;11.30;;;8.63;;
6105;SDS011;3083;51.508;7.966;2023-05-07T11:31:43;18.93;;;7.77;;
6105;SDS011;3083;51.508;7.966;2023-05-07T11:34:12;12.00;;;7.77;;
6105;SDS011;3083;51.508;7.966;2023-05-07T11:36:42;9.10;;;6.70;;
6105;SDS011;3083;51.508;7.966;2023-05-07T11:39:25;11.93;;;8.53;;
6105;SDS011;3083;51.508;7.966;2023-05-07T11:41:53;14.70;;;10.63;;
6105;SDS011;3083;51.508;7.966;2023-05-07T11:44:20;14.87;;;10.10;;
6105;SDS011;3083;51.508;7.966;2023-05-07T11:46:48;12.70;;;8.50;;
6105;SDS011;3083;51.508;7.966;2023-05-07T11:49:18;11.40;;;7.90;;
6105;SDS011;3083;51.508;7.966;2023-05-07T11:51:45;11.53;;;8.50;;
6105;SDS011;3083;51.508;7.966;2023-05-07T11:54:15;10.53;;;7.90;;
6105;SDS011;3083;51.508;7.966;2023-05-07T11:56:43;9.10;;;6.77;;
6105;SDS011;3083;51.508;7.966;2023-05-07T11:59:11;9.73;;;6.97;;
6105;SDS011;3083;51.508;7.966;2023-05-07T12:01:38;9.40;;;6.80;;
6105;SDS011;3083;51.508;7.966;2023-05-07T12:04:05;10.33;;;7.60;;
6105;SDS011;3083;51.508;7.966;2023-05-07T12:06:35;13.87;;;9.00;;
6105;SDS011;3083;51.508;7.966;2023-05-07T12:09:03;11.17;;;8.33;;
6105;SDS011;3083;51.508;7.966;2023-05-07T12:11:36;15.03;;;8.80;;
6105;SDS011;3083;51.508;7.966;2023-05-07T12:14:04;13.00;;;8.87;;
6105;SDS011;3083;51.508;7.966;2023-05-07T12:16:32;12.47;;;9.00;;
6105;SDS011;3083;51.508;7.966;2023-05-07T12:18:59;12.70;;;9.53;;
6105;SDS011;3083;51.508;7.966;2023-05-07T12:21:26;12.63;;;9.00;;
6105;SDS011;3083;51.508;7.966;2023-05-07T12:23:54;12.63;;;8.67;;
6105;SDS011;3083;51.508;7.966;2023-05-07T12:26:22;12.60;;;8.97;;
6105;SDS011;3083;51.508;7.966;2023-05-07T12:28:50;11.83;;;8.77;;
6105;SDS011;3083;51.508;7.966;2023-05-07T12:31:17;16.30;;;8.57;;
6105;SDS011;3083;51.508;7.966;2023-05-07T12:33:45;11.93;;;8.20;;
6105;SDS011;3083;51.508;7.966;2023-05-07T12:36:12;11.17;;;8.30;;
6105;SDS011;3083;51.508;7.966;2023-05-07T12:38:39;11.87;;;8.17;;
6105;SDS011;3083;51.508;7.966;2023-05-07T12:41:09;11.47;;;8.37;;
6105;SDS011;3083;51.508;7.966;2023-05-07T12:43:37;12.90;;;8.83;;
6105;SDS011;3083;51.508;7.966;2023-05-07T12:46:04;12.33;;;8.87;;
6105;SDS011;3083;51.508;7.966;2023-05-07T12:48:32;10.77;;;7.87;;
6105;SDS011;3083;51.508;7.966;2023-05-07T12:51:00;14.50;;;8.97;;
6105;SDS011;3083;51.508;7.966;2023-05-07T12:53:28;12.77;;;8.37;;
6105;SDS011;3083;51.508;7.966;2023-05-07T12:55:56;12.47;;;8.40;;
6105;SDS011;3083;51.508;7.966;2023-05-07T12:58:26;12.03;;;8.00;;
6105;SDS011;3083;51.508;7.966;2023-05-07T13:00:54;11.57;;;8.03;;
6105;SDS011;3083;51.508;7.966;2023-05-07T13:03:26;11.07;;;7.40;;
6105;SDS011;3083;51.508;7.966;2023-05-07T13:05:55;12.10;;;8.43;;
6105;SDS011;3083;51.508;7.966;2023-05-07T13:08:27;13.03;;;8.87;;
6105;SDS011;3083;51.508;7.966;2023-05-07T13:10:56;14.73;;;9.30;;
6105;SDS011;3083;51.508;7.966;2023-05-07T13:13:26;15.20;;;7.63;;
6105;SDS011;3083;51.508;7.966;2023-05-07T13:15:53;11.80;;;7.97;;
6105;SDS011;3083;51.508;7.966;2023-05-07T13:18:20;10.07;;;6.60;;
6105;SDS011;3083;51.508;7.966;2023-05-07T13:20:47;10.33;;;7.10;;
6105;SDS011;3083;51.508;7.966;2023-05-07T13:23:14;9.33;;;7.10;;
6105;SDS011;3083;51.508;7.966;2023-05-07T13:25:41;10.27;;;6.77;;
6105;SDS011;3083;51.508;7.966;2023-05-07T13:28:08;13.27;;;7.00;;
6105;SDS011;3083;51.508;7.966;2023-05-07T13:30:36;11.17;;;7.80;;
6105;SDS011;3083;51.508;7.966;2023-05-07T13:33:03;11.17;;;6.70;;
6105;SDS011;3083;51.508;7.966;2023-05-07T13:35:30;8.93;;;5.60;;
6105;SDS011;3083;51.508;7.966;2023-05-07T13:37:57;11.07;;;6.63;;
6105;SDS011;3083;51.508;7.966;2023-05-07T13:40:24;8.57;;;6.00;;
6105;SDS011;3083;51.508;7.966;2023-05-07T13:42:51;10.60;;;6.27;;
6105;SDS011;3083;51.508;7.966;2023-05-07T13:45:19;10.40;;;6.17;;
6105;SDS011;3083;51.508;7.966;2023-05-07T13:47:47;11.30;;;7.00;;
6105;SDS011;3083;51.508;7.966;2023-05-07T13:50:15;9.87;;;7.20;;
6105;SDS011;3083;51.508;7.966;2023-05-07T13:52:42;10.73;;;7.00;;
6105;SDS011;3083;51.508;7.966;2023-05-07T13:55:15;10.73;;;6.73;;
6105;SDS011;3083;51.508;7.966;2023-05-07T13:57:42;9.60;;;6.20;;
6105;SDS011;3083;51.508;7.966;2023-05-07T14:00:10;9.23;;;6.13;;
6105;SDS011;3083;51.508;7.966;2023-05-07T14:02:37;9.20;;;5.63;;
6105;SDS011;3083;51.508;7.966;2023-05-07T14:05:06;8.00;;;5.30;;
6105;SDS011;3083;51.508;7.966;2023-05-07T14:07:34;6.50;;;4.60;;
6105;SDS011;3083;51.508;7.966;2023-05-07T14:10:01;8.80;;;5.07;;
6105;SDS011;3083;51.508;7.966;2023-05-07T14:12:28;8.10;;;4.97;;
6105;SDS011;3083;51.508;7.966;2023-05-07T14:14:55;7.20;;;5.00;;
6105;SDS011;3083;51.508;7.966;2023-05-07T14:17:22;7.80;;;4.93;;
6105;SDS011;3083;51.508;7.966;2023-05-07T14:19:51;9.47;;;5.10;;
6105;SDS011;3083;51.508;7.966;2023-05-07T14:22:21;7.20;;;4.60;;
6105;SDS011;3083;51.508;7.966;2023-05-07T14:24:48;8.90;;;4.00;;
6105;SDS011;3083;51.508;7.966;2023-05-07T14:27:16;6.83;;;4.00;;
6105;SDS011;3083;51.508;7.966;2023-05-07T14:29:43;6.93;;;4.20;;
6105;SDS011;3083;51.508;7.966;2023-05-07T14:32:10;5.93;;;3.80;;
6105;SDS011;3083;51.508;7.966;2023-05-07T14:34:38;6.93;;;3.90;;
6105;SDS011;3083;51.508;7.966;2023-05-07T14:37:05;5.40;;;3.50;;
6105;SDS011;3083;51.508;7.966;2023-05-07T14:39:33;4.27;;;2.70;;
6105;SDS011;3083;51.508;7.966;2023-05-07T14:42:00;6.70;;;2.53;;
6105;SDS011;3083;51.508;7.966;2023-05-07T14:44:27;4.47;;;2.80;;
6105;SDS011;3083;51.508;7.966;2023-05-07T14:46:54;6.63;;;2.90;;
6105;SDS011;3083;51.508;7.966;2023-05-07T14:49:21;5.07;;;2.47;;
6105;SDS011;3083;51.508;7.966;2023-05-07T14:51:48;5.40;;;2.90;;
6105;SDS011;3083;51.508;7.966;2023-05-07T14:54:16;4.10;;;2.30;;
6105;SDS011;3083;51.508;7.966;2023-05-07T14:56:44;3.70;;;2.20;;
6105;SDS011;3083;51.508;7.966;2023-05-07T14:59:11;3.67;;;2.40;;
6105;SDS011;3083;51.508;7.966;2023-05-07T15:01:38;5.50;;;2.40;;
6105;SDS011;3083;51.508;7.966;2023-05-07T15:04:10;4.03;;;2.40;;
6105;SDS011;3083;51.508;7.966;2023-05-07T15:06:37;4.50;;;2.40;;
6105;SDS011;3083;51.508;7.966;2023-05-07T15:09:04;4.30;;;2.43;;
6105;SDS011;3083;51.508;7.966;2023-05-07T15:11:31;5.07;;;2.60;;
6105;SDS011;3083;51.508;7.966;2023-05-07T15:13:59;4.67;;;2.53;;
6105;SDS011;3083;51.508;7.966;2023-05-07T15:16:26;5.30;;;2.83;;
6105;SDS011;3083;51.508;7.966;2023-05-07T15:18:53;4.17;;;2.40;;
6105;SDS011;3083;51.508;7.966;2023-05-07T15:21:20;4.83;;;2.93;;
6105;SDS011;3083;51.508;7.966;2023-05-07T15:23:47;5.17;;;3.43;;
6105;SDS011;3083;51.508;7.966;2023-05-07T15:26:14;5.83;;;3.30;;